Flight Track Log - Related Links

Times and Time Zones

All times are in EDT time to prevent confusion due to time zone crossing. See the UAL1635 flight status page for this flight to view local times or setup timezone preferences in your user account.

Time Position Orientation Groundspeed Altitude Reporting Facility
EDT Latitude Longitude Course Direction KTS MPH feet Rate Location/Type
Sun 01:37:27 AM 37.7160 -122.3750 349° North 255 293 4,200  Level FlightAware ADS-B
Sun 01:37:52 AM 37.7470 -122.3790 354° North 276 318 5,000 2,267 Climbing FlightAware ADS-B
Sun 01:38:12 AM 37.7730 -122.3800 358° North 282 325 5,900 2,700 Climbing FlightAware ADS-B
Sun 01:38:32 AM 37.8000 -122.3800 360° North 288 331 6,800 2,520 Climbing FlightAware ADS-B
Sun 01:39:02 AM 37.8360 -122.3620 22° Northeast 292 336 8,000 2,267 Climbing FlightAware ADS-B
Sun 01:39:17 AM 37.8470 -122.3400 58° Northeast 298 343 8,500 2,400 Climbing FlightAware ADS-B
Sun 01:39:42 AM 37.8550 -122.2990 76° East 298 343 9,600 2,229 Climbing FlightAware ADS-B
Sun 01:40:27 AM 37.8690 -122.2180 78° East 319 367 11,100 1,553 Climbing FlightAware ADS-B
Sun 01:41:07 AM 37.8830 -122.1390 77° East 361 415 11,800 1,482 Climbing FlightAware ADS-B
Sun 01:41:52 AM 37.8990 -122.0450 78° East 381 438 13,200 1,835 Climbing FlightAware ADS-B
Sun 01:42:32 AM 37.9150 -121.9540 77° East 403 464 14,400 1,800 Climbing FlightAware ADS-B
Sun 01:43:12 AM 37.9310 -121.8610 78° East 416 479 15,600 1,906 Climbing FlightAware ADS-B
Sun 01:43:57 AM 37.9490 -121.7530 78° East 426 490 17,100 1,976 Climbing FlightAware ADS-B
Sun 01:44:37 AM 37.9660 -121.6540 78° East 433 498 18,400 1,835 Climbing FlightAware ADS-B
Sun 01:45:22 AM 37.9850 -121.5410 78° East 442 509 19,700 1,694 Climbing FlightAware ADS-B
Sun 01:46:02 AM 38.0030 -121.4390 77° East 448 516 20,800 1,624 Climbing FlightAware ADS-B
Sun 01:46:47 AM 38.0220 -121.3250 78° East 455 524 22,000 1,482 Climbing FlightAware ADS-B
Sun 01:47:27 AM 38.0400 -121.2150 78° East 464 534 22,900 1,425 Climbing FlightAware ADS-B
Sun 01:48:07 AM 38.0580 -121.1070 78° East 470 541 23,900 1,341 Climbing FlightAware ADS-B
Sun 01:48:52 AM 38.0790 -120.9880 77° East 477 549 24,800 1,129 Climbing FlightAware ADS-B
Sun 01:49:32 AM 38.1050 -120.8790 73° East 485 558 25,500 918 Climbing FlightAware ADS-B
Sun 01:50:17 AM 38.1350 -120.7530 73° East 494 568 26,100 847 Climbing FlightAware ADS-B
Sun 01:50:57 AM 38.1620 -120.6420 73° East 503 579 26,700 975 Climbing FlightAware ADS-B
Sun 01:51:37 AM 38.1890 -120.5290 73° East 505 581 27,400 1,200 Climbing FlightAware ADS-B
Sun 01:52:17 AM 38.2160 -120.4160 73° East 503 579 28,300 1,560 Climbing FlightAware ADS-B
Sun 01:53:17 AM 38.2540 -120.2530 73° East 485 558 30,000 1,560 Climbing FlightAware ADS-B
Sun 01:53:57 AM 38.2810 -120.1400 73° East 480 552 30,900 706 Climbing FlightAware ADS-B
Sun 01:54:42 AM 38.3090 -120.0210 73° East 483 556 31,000 75 Climbing FlightAware ADS-B
Sun 01:55:17 AM 38.3310 -119.9230 74° East 486 559 31,000  Level FlightAware ADS-B
Sun 01:56:02 AM 38.3600 -119.8000 73° East 489 563 31,000  Level FlightAware ADS-B
Sun 01:56:42 AM 38.3830 -119.7030 73° East 489 563 31,000  Level FlightAware ADS-B
Sun 01:57:22 AM 38.4050 -119.6090 73° East 489 563 31,000  Level FlightAware ADS-B
Sun 01:58:12 AM 38.4420 -119.4400 74° East 479 551 31,000  Level FlightAware ADS-B
Sun 01:58:52 AM 38.4670 -119.3300 74° East 483 556 31,000  Level FlightAware ADS-B
Sun 01:59:42 AM 38.4960 -119.2040 74° East 484 557 31,000  Level FlightAware ADS-B
Sun 02:00:32 AM 38.5220 -119.0870 74° East 484 557 31,000  Level FlightAware ADS-B
Sun 02:01:12 AM 38.5430 -118.9930 74° East 484 557 31,000  Level FlightAware ADS-B
Sun 02:01:52 AM 38.5640 -118.9000 74° East 484 557 31,000  Level FlightAware ADS-B
Sun 02:02:32 AM 38.5850 -118.8060 74° East 484 557 31,000  Level FlightAware ADS-B
Sun 02:03:12 AM 38.6060 -118.7120 74° East 484 557 31,000  Level FlightAware ADS-B
Sun 02:04:02 AM 38.6320 -118.5950 74° East 484 557 31,000  Level FlightAware ADS-B
Sun 02:04:42 AM 38.6530 -118.5010 74° East 484 557 31,000  Level FlightAware ADS-B
Sun 02:05:22 AM 38.6740 -118.4080 74° East 484 557 31,000  Level FlightAware ADS-B
Sun 02:06:02 AM 38.6950 -118.3140 74° East 484 557 31,000  Level FlightAware ADS-B
Sun 02:06:42 AM 38.7160 -118.2200 74° East 484 557 31,000  Level FlightAware ADS-B
Sun 02:07:22 AM 38.7370 -118.1260 74° East 484 557 31,000  Level FlightAware ADS-B
Sun 02:08:12 AM 38.7630 -118.0090 74° East 484 557 31,000  Level FlightAware ADS-B
Sun 02:08:52 AM 38.7840 -117.9150 74° East 484 557 31,000 2,034 Level FlightAware ADS-B
Sun 02:09:11 AM 38.6536 -117.5881 74° East 499 574 33,000 1,519 Climbing Salt Lake Center
Sun 02:10:11 AM 38.6700 -117.4097 83° East 500 575 33,000  Level Salt Lake Center
Sun 02:11:11 AM 38.6881 -117.2314 83° East 502 578 33,000  Level Salt Lake Center
Sun 02:12:12 AM 38.7153 -117.0553 79° East 502 578 33,000  Level Salt Lake Center
Sun 02:13:12 AM 38.7411 -116.8811 79° East 497 572 33,000  Level Salt Lake Center
Sun 02:14:12 AM 38.7661 -116.7056 80° East 498 573 33,000  Level Salt Lake Center
Sun 02:15:13 AM 38.7922 -116.5317 79° East 497 572 33,000  Level Salt Lake Center
Sun 02:16:13 AM 38.8172 -116.3561 80° East 498 573 33,000  Level Salt Lake Center
Sun 02:17:13 AM 38.8425 -116.1811 79° East 499 574 33,000  Level Salt Lake Center
Sun 02:18:13 AM 38.8675 -116.0053 80° East 499 574 33,000  Level Salt Lake Center
Sun 02:19:14 AM 38.8914 -115.8294 80° East 500 575 33,000  Level Salt Lake Center
Sun 02:20:14 AM 38.9158 -115.6531 80° East 501 577 33,000  Level Salt Lake Center
Sun 02:21:14 AM 38.9397 -115.4769 80° East 501 577 33,000  Level Salt Lake Center
Sun 02:22:15 AM 38.9619 -115.3117 80° East 503 579 33,000  Level Salt Lake Center
Sun 02:23:15 AM 38.9844 -115.1369 81° East 498 573 33,000  Level Salt Lake Center
Sun 02:24:15 AM 39.0069 -114.9631 80° East 496 571 33,000  Level Salt Lake Center
Sun 02:25:15 AM 39.0294 -114.7881 81° East 496 571 33,000  Level Salt Lake Center
Sun 02:26:16 AM 39.0553 -114.6092 79° East 502 578 33,000  Level Salt Lake Center
Sun 02:27:16 AM 39.0778 -114.4342 81° East 499 574 33,000  Level Salt Lake Center
Sun 02:28:16 AM 39.0986 -114.2586 81° East 497 572 33,000  Level Salt Lake Center
Sun 02:29:16 AM 39.1197 -114.0831 81° East 496 571 33,000  Level Salt Lake Center
Sun 02:30:17 AM 39.1444 -113.9081 80° East 497 572 33,000  Level Salt Lake Center
Sun 02:31:17 AM 39.1869 -113.7375 72° East 498 573 33,000  Level Salt Lake Center
Sun 02:32:17 AM 39.2267 -113.5642 73° East 502 578 33,000  Level Salt Lake Center
Sun 02:33:18 AM 39.2658 -113.3911 74° East 502 578 33,000  Level Salt Lake Center
Sun 02:34:18 AM 39.3050 -113.2158 74° East 507 583 33,000  Level Salt Lake Center
Sun 02:39:47 AM 39.5240 -112.2200 74° East 511 588 33,000  Level FlightAware ADS-B
Sun 02:40:32 AM 39.5510 -112.0950 74° East 511 588 33,000  Level FlightAware ADS-B
Sun 02:41:12 AM 39.5730 -111.9950 74° East 511 588 33,000  Level FlightAware ADS-B
Sun 02:41:52 AM 39.5950 -111.8950 74° East 511 588 33,000  Level FlightAware ADS-B
Sun 02:42:32 AM 39.6170 -111.7940 74° East 511 588 33,000  Level FlightAware ADS-B
Sun 02:43:12 AM 39.6390 -111.6940 74° East 511 588 33,000  Level FlightAware ADS-B
Sun 02:43:52 AM 39.6620 -111.5940 73° East 511 588 33,000  Level FlightAware ADS-B
Sun 02:44:42 AM 39.6890 -111.4680 74° East 511 588 33,000  Level FlightAware ADS-B
Sun 02:45:22 AM 39.7110 -111.3680 74° East 511 588 33,000  Level FlightAware ADS-B
Sun 02:46:02 AM 39.7340 -111.2670 73° East 511 588 33,000  Level FlightAware ADS-B
Sun 02:46:42 AM 39.7560 -111.1670 74° East 511 588 33,000  Level FlightAware ADS-B
Sun 02:47:32 AM 39.7830 -111.0410 74° East 511 588 33,000  Level FlightAware ADS-B
Sun 02:49:07 AM 39.8680 -110.5530 77° East 522 601 33,000  Level FlightAware ADS-B
Sun 02:50:07 AM 39.9020 -110.3840 75° East 522 601 33,000  Level FlightAware ADS-B
Sun 02:50:42 AM 39.9250 -110.2620 76° East 526 605 33,000  Level FlightAware ADS-B
Sun 02:51:27 AM 39.9510 -110.1350 75° East 526 605 33,000  Level FlightAware ADS-B
Sun 02:52:12 AM 39.9780 -109.9880 76° East 528 608 33,000  Level FlightAware ADS-B
Sun 02:52:52 AM 40.0010 -109.8680 76° East 522 601 33,000  Level FlightAware ADS-B
Sun 02:53:37 AM 40.0280 -109.7370 75° East 520 598 33,000  Level FlightAware ADS-B
Sun 02:54:17 AM 40.0490 -109.6340 75° East 520 598 33,000  Level FlightAware ADS-B
Sun 02:54:57 AM 40.0720 -109.4970 78° East 518 596 33,000  Level FlightAware ADS-B
Sun 02:55:42 AM 40.0990 -109.3540 76° East 517 595 33,000  Level FlightAware ADS-B
Sun 02:56:22 AM 40.1210 -109.2360 76° East 517 595 33,000  Level FlightAware ADS-B
Sun 02:56:57 AM 40.1390 -109.1380 76° East 517 595 33,000  Level FlightAware ADS-B
Sun 02:57:37 AM 40.1640 -109.0000 77° East 519 597 33,000  Level FlightAware ADS-B
Sun 02:58:42 AM 40.1980 -108.8180 76° East 520 598 33,000  Level FlightAware ADS-B
Sun 02:59:32 AM 40.2260 -108.6640 77° East 522 601 33,000  Level FlightAware ADS-B
Sun 03:00:17 AM 40.2490 -108.5460 76° East 522 601 33,000  Level FlightAware ADS-B
Sun 03:00:57 AM 40.2680 -108.4420 77° East 522 601 33,000  Level FlightAware ADS-B
Sun 03:01:37 AM 40.2880 -108.3380 76° East 522 601 33,000  Level FlightAware ADS-B
Sun 03:03:22 AM 40.3450 -107.9880 78° East 517 595 33,000  Level FlightAware ADS-B
Sun 03:04:17 AM 40.3810 -107.7800 77° East 517 595 33,000  Level FlightAware ADS-B
Sun 03:04:57 AM 40.3990 -107.6770 77° East 517 595 33,000  Level FlightAware ADS-B
Sun 03:05:37 AM 40.4170 -107.5730 77° East 517 595 33,000  Level FlightAware ADS-B
Sun 03:06:17 AM 40.4350 -107.4690 77° East 517 595 33,000  Level FlightAware ADS-B
Sun 03:07:01 AM 40.4684 -107.2640 78° East 518 596 33,000  Level FlightAware ADS-B
Sun 03:08:02 AM 40.4960 -107.1050 77° East 518 596 33,000  Level FlightAware ADS-B
Sun 03:08:42 AM 40.5110 -107.0100 78° East 516 594 33,000  Level FlightAware ADS-B
Sun 03:09:27 AM 40.5420 -106.8180 78° East 516 594 33,000  Level FlightAware ADS-B
Sun 03:10:07 AM 40.5610 -106.6980 78° East 517 595 33,000  Level FlightAware ADS-B
Sun 03:10:47 AM 40.5790 -106.5850 78° East 517 595 33,000  Level FlightAware ADS-B
Sun 03:11:32 AM 40.6020 -106.4430 78° East 516 594 33,000  Level FlightAware ADS-B
Sun 03:12:07 AM 40.6200 -106.3310 78° East 517 595 33,000  Level FlightAware ADS-B
Sun 03:12:57 AM 40.6450 -106.1730 78° East 518 596 33,000  Level FlightAware ADS-B
Sun 03:13:37 AM 40.6640 -106.0520 78° East 518 596 33,000  Level FlightAware ADS-B
Sun 03:14:17 AM 40.6830 -105.9270 79° East 519 597 33,000  Level FlightAware ADS-B
Sun 03:15:02 AM 40.7040 -105.7900 79° East 519 597 33,000  Level FlightAware ADS-B
Sun 03:15:42 AM 40.7230 -105.6680 78° East 519 597 33,000  Level FlightAware ADS-B
Sun 03:16:27 AM 40.7440 -105.5250 79° East 517 595 33,000  Level FlightAware ADS-B
Sun 03:16:38 AM 40.7497 -105.4890 78° East 518 596 33,000  Level FlightAware ADS-B
Sun 03:17:11 AM 40.7654 -105.3850 79° East 518 596 33,000  Level FlightAware ADS-B
Sun 03:17:46 AM 40.7815 -105.2770 79° East 517 595 33,000  Level FlightAware ADS-B
Sun 03:18:17 AM 40.7954 -105.1830 79° East 517 595 33,000  Level FlightAware ADS-B
Sun 03:18:47 AM 40.8092 -105.0900 79° East 518 596 33,000  Level FlightAware ADS-B
Sun 03:19:18 AM 40.8230 -104.9950 79° East 517 595 33,000  Level FlightAware ADS-B
Sun 03:19:48 AM 40.8364 -104.9030 79° East 516 594 33,000  Level FlightAware ADS-B
Sun 03:20:18 AM 40.8498 -104.8100 79° East 516 594 33,000  Level FlightAware ADS-B
Sun 03:20:48 AM 40.8630 -104.7170 79° East 514 592 33,000  Level FlightAware ADS-B
Sun 03:21:18 AM 40.8762 -104.6250 79° East 513 590 33,000  Level FlightAware ADS-B
Sun 03:21:48 AM 40.8893 -104.5320 79° East 512 589 33,000  Level FlightAware ADS-B
Sun 03:22:18 AM 40.9023 -104.4400 79° East 512 589 33,000  Level FlightAware ADS-B
Sun 03:22:48 AM 40.9152 -104.3470 80° East 513 590 33,000  Level FlightAware ADS-B
Sun 03:23:19 AM 40.9281 -104.2540 80° East 513 590 33,000  Level FlightAware ADS-B
Sun 03:23:49 AM 40.9410 -104.1620 79° East 513 590 33,000  Level FlightAware ADS-B
Sun 03:24:19 AM 40.9539 -104.0680 80° East 512 589 33,000  Level FlightAware ADS-B
Sun 03:24:49 AM 40.9665 -103.9760 80° East 509 586 33,000  Level FlightAware ADS-B
Sun 03:25:19 AM 40.9789 -103.8850 80° East 507 583 33,000  Level FlightAware ADS-B
Sun 03:25:49 AM 40.9912 -103.7930 80° East 506 582 33,000  Level FlightAware ADS-B
Sun 03:26:19 AM 41.0036 -103.7010 80° East 507 583 33,000  Level FlightAware ADS-B
Sun 03:26:49 AM 41.0158 -103.6090 80° East 507 583 33,000  Level FlightAware ADS-B
Sun 03:27:20 AM 41.0277 -103.5190 80° East 492 566 33,000  Level FlightAware ADS-B
Sun 03:27:50 AM 41.0394 -103.4300 80° East 487 560 33,000  Level FlightAware ADS-B
Sun 03:28:20 AM 41.0512 -103.3410 80° East 488 562 33,000  Level FlightAware ADS-B
Sun 03:28:50 AM 41.0625 -103.2530 80° East 488 562 33,000  Level FlightAware ADS-B
Sun 03:29:20 AM 41.0738 -103.1650 80° East 488 562 33,000  Level FlightAware ADS-B
Sun 03:29:50 AM 41.0853 -103.0770 80° East 489 563 33,000  Level FlightAware ADS-B
Sun 03:30:21 AM 41.0967 -102.9860 81° East 489 563 33,000  Level FlightAware ADS-B
Sun 03:30:51 AM 41.1083 -102.8960 80° East 490 564 33,000 400 Level FlightAware ADS-B
Sun 03:31:21 AM 41.1195 -102.8070 80° East 491 565 33,400 700 Climbing FlightAware ADS-B
Sun 03:31:51 AM 41.1307 -102.7180 80° East 495 570 33,700 500 Climbing FlightAware ADS-B
Sun 03:32:21 AM 41.1419 -102.6270 81° East 499 574 33,900 295 Climbing FlightAware ADS-B
Sun 03:32:52 AM 41.1533 -102.5360 81° East 503 579 34,000 98 Climbing FlightAware ADS-B
Sun 03:33:22 AM 41.1642 -102.4450 81° East 498 573 34,000  Level FlightAware ADS-B
Sun 03:33:52 AM 41.1752 -102.3540 81° East 498 573 34,000  Level FlightAware ADS-B
Sun 03:34:22 AM 41.1863 -102.2630 81° East 498 573 34,000  Level FlightAware ADS-B
Sun 03:34:53 AM 41.1973 -102.1710 81° East 499 574 34,000  Level FlightAware ADS-B
Sun 03:35:23 AM 41.2085 -102.0780 81° East 499 574 34,000  Level FlightAware ADS-B
Sun 03:35:54 AM 41.2195 -101.9880 81° East 499 574 34,000  Level FlightAware ADS-B
Sun 03:36:25 AM 41.2307 -101.8940 81° East 498 573 34,000  Level FlightAware ADS-B
Sun 03:36:56 AM 41.2416 -101.8000 81° East 498 573 34,000  Level FlightAware ADS-B
Sun 03:37:27 AM 41.2522 -101.7070 81° East 498 573 34,000  Level FlightAware ADS-B
Sun 03:37:57 AM 41.2627 -101.6150 81° East 498 573 34,000  Level FlightAware ADS-B
Sun 03:38:32 AM 41.2746 -101.5090 81° East 497 572 34,000  Level FlightAware ADS-B
Sun 03:39:32 AM 41.2940 -101.3440 81° East 498 573 34,000  Level FlightAware ADS-B
Sun 03:40:12 AM 41.3060 -101.2410 81° East 498 573 34,000  Level FlightAware ADS-B
Sun 03:40:52 AM 41.3180 -101.1380 81° East 498 573 34,000  Level FlightAware ADS-B
Sun 03:41:32 AM 41.3300 -101.0350 81° East 498 573 34,000  Level FlightAware ADS-B
Sun 03:42:22 AM 41.3460 -100.9060 81° East 498 573 34,000  Level FlightAware ADS-B
Sun 03:43:02 AM 41.3580 -100.8030 81° East 498 573 34,000  Level FlightAware ADS-B
Sun 03:43:42 AM 41.3700 -100.7000 81° East 498 573 34,000  Level FlightAware ADS-B
Sun 03:44:22 AM 41.3820 -100.5970 81° East 498 573 34,000  Level FlightAware ADS-B
Sun 03:45:02 AM 41.3950 -100.4940 80° East 498 573 34,000  Level FlightAware ADS-B
Sun 03:45:42 AM 41.4070 -100.3910 81° East 498 573 34,000  Level FlightAware ADS-B
Sun 03:46:32 AM 41.4220 -100.2620 81° East 498 573 34,000  Level FlightAware ADS-B
Sun 03:47:12 AM 41.4340 -100.1580 81° East 498 573 34,000  Level FlightAware ADS-B
Sun 03:47:52 AM 41.4470 -100.0550 80° East 498 573 34,000  Level FlightAware ADS-B
Sun 03:48:32 AM 41.4590 -99.9520 81° East 498 573 34,000  Level FlightAware ADS-B
Sun 03:49:08 AM 41.4725 -99.6303 81° East 476 548 34,000  Level Denver Center
Sun 03:50:09 AM 41.4894 -99.4564 83° East 473 544 34,000  Level Denver Center
Sun 03:51:09 AM 41.5061 -99.2839 83° East 468 539 34,000  Level Denver Center
Sun 03:52:10 AM 41.5214 -99.1119 83° East 465 535 34,000  Level Denver Center
Sun 03:53:10 AM 41.5378 -98.9400 83° East 463 533 34,000  Level Denver Center
Sun 03:54:10 AM 41.5525 -98.7711 83° East 457 526 34,000  Level Denver Center
Sun 03:55:11 AM 41.5681 -98.6011 83° East 456 525 34,000  Level Denver Center
Sun 03:56:11 AM 41.5819 -98.4311 84° East 457 526 34,000  Level Denver Center
Sun 03:57:16 AM 41.5967 -98.2622 83° East 457 526 34,000  Level Minneapolis Center
Sun 03:58:16 AM 41.6117 -98.0886 83° East 461 531 34,000  Level Minneapolis Center
Sun 03:59:16 AM 41.6256 -97.9183 84° East 461 531 34,000  Level Minneapolis Center
Sun 04:00:17 AM 41.6392 -97.7467 84° East 463 533 34,000  Level Minneapolis Center
Sun 04:01:17 AM 41.6514 -97.5731 85° East 466 536 34,000  Level Minneapolis Center
Sun 04:02:17 AM 41.6667 -97.3997 83° East 467 537 34,000  Level Minneapolis Center
Sun 04:03:18 AM 41.6800 -97.2286 84° East 466 536 34,000  Level Minneapolis Center
Sun 04:04:18 AM 41.6922 -97.0558 85° East 466 536 34,000  Level Minneapolis Center
Sun 04:05:18 AM 41.7050 -96.8850 84° East 464 534 34,000  Level Minneapolis Center
Sun 04:06:18 AM 41.7175 -96.7136 84° East 463 533 34,000  Level Minneapolis Center
Sun 04:07:19 AM 41.7292 -96.5422 85° East 461 531 34,000  Level Minneapolis Center
Sun 04:08:19 AM 41.7417 -96.3700 84° East 462 532 34,000  Level Minneapolis Center
Sun 04:09:19 AM 41.7528 -96.1969 85° East 463 533 34,000  Level Minneapolis Center
Sun 04:15:12 AM 41.8150 -95.1840 85° East 461 531 34,000  Level FlightAware ADS-B
Sun 04:15:57 AM 41.8220 -95.0570 86° East 460 529 34,000  Level FlightAware ADS-B
Sun 04:16:42 AM 41.8300 -94.9270 85° East 460 529 34,000  Level FlightAware ADS-B
Sun 04:17:22 AM 41.8360 -94.8130 86° East 459 528 34,000  Level FlightAware ADS-B
Sun 04:18:02 AM 41.8420 -94.6980 86° East 459 528 34,000  Level FlightAware ADS-B
Sun 04:18:47 AM 41.8490 -94.5730 86° East 459 528 34,000  Level FlightAware ADS-B
Sun 04:19:27 AM 41.8550 -94.4580 86° East 458 527 34,000  Level FlightAware ADS-B
Sun 04:20:07 AM 41.8600 -94.3410 87° East 458 527 34,000  Level FlightAware ADS-B
Sun 04:20:52 AM 41.8670 -94.2190 86° East 456 525 34,000  Level FlightAware ADS-B
Sun 04:21:32 AM 41.8720 -94.1060 87° East 455 524 34,000  Level FlightAware ADS-B
Sun 04:22:17 AM 41.8780 -93.9760 86° East 455 524 34,000  Level FlightAware ADS-B
Sun 04:22:57 AM 41.8830 -93.8640 87° East 455 524 34,000  Level FlightAware ADS-B
Sun 04:23:37 AM 41.8890 -93.7510 86° East 455 524 34,000  Level FlightAware ADS-B
Sun 04:24:22 AM 41.8940 -93.6290 87° East 454 522 34,000  Level FlightAware ADS-B
Sun 04:25:02 AM 41.8990 -93.5140 87° East 455 524 34,000  Level FlightAware ADS-B
Sun 04:25:42 AM 41.9040 -93.4030 86° East 455 524 34,000  Level FlightAware ADS-B
Sun 04:26:27 AM 41.9090 -93.2780 87° East 455 524 34,000  Level FlightAware ADS-B
Sun 04:27:07 AM 41.9130 -93.1640 87° East 456 525 34,000  Level FlightAware ADS-B
Sun 04:27:47 AM 41.9180 -93.0520 87° East 456 525 34,000  Level FlightAware ADS-B
Sun 04:28:32 AM 41.9230 -92.9200 87° East 457 526 34,000  Level FlightAware ADS-B
Sun 04:29:12 AM 41.9270 -92.8050 87° East 457 526 34,000  Level FlightAware ADS-B
Sun 04:29:52 AM 41.9310 -92.6970 87° East 459 528 34,000  Level FlightAware ADS-B
Sun 04:30:37 AM 41.9360 -92.5680 87° East 460 529 34,000  Level FlightAware ADS-B
Sun 04:31:17 AM 41.9400 -92.4500 87° East 460 529 34,000  Level FlightAware ADS-B
Sun 04:32:02 AM 41.9440 -92.3270 87° East 461 531 34,000  Level FlightAware ADS-B
Sun 04:32:42 AM 41.9470 -92.2120 88° East 461 531 34,000  Level FlightAware ADS-B
Sun 04:33:22 AM 41.9510 -92.0980 87° East 459 528 34,000  Level FlightAware ADS-B
Sun 04:34:07 AM 41.9550 -91.9670 88° East 459 528 34,000  Level FlightAware ADS-B
Sun 04:34:37 AM 41.9570 -91.8800 88° East 459 528 34,000  Level FlightAware ADS-B
Sun 04:35:17 AM 41.9600 -91.7680 88° East 459 528 34,000  Level FlightAware ADS-B
Sun 04:35:57 AM 41.9640 -91.6530 87° East 458 527 34,000  Level FlightAware ADS-B
Sun 04:36:42 AM 41.9670 -91.5310 88° East 457 526 34,000  Level FlightAware ADS-B
Sun 04:37:17 AM 41.9690 -91.4290 88° East 457 526 34,000  Level FlightAware ADS-B
Sun 04:38:07 AM 41.9730 -91.2860 88° East 456 525 34,000  Level FlightAware ADS-B
Sun 04:38:47 AM 41.9750 -91.1750 89° East 456 525 34,000  Level FlightAware ADS-B
Sun 04:39:32 AM 41.9780 -91.0450 88° East 454 522 34,000  Level FlightAware ADS-B
Sun 04:40:12 AM 41.9800 -90.9370 89° East 453 521 34,000  Level FlightAware ADS-B
Sun 04:40:42 AM 41.9820 -90.8490 88° East 451 519 34,000  Level FlightAware ADS-B
Sun 04:41:22 AM 41.9840 -90.7400 89° East 452 520 34,000  Level FlightAware ADS-B
Sun 04:42:02 AM 41.9860 -90.6250 89° East 451 519 34,000  Level FlightAware ADS-B
Sun 04:42:47 AM 41.9890 -90.5010 88° East 452 520 34,000  Level FlightAware ADS-B
Sun 04:43:32 AM 41.9900 -90.3800 89° East 449 517 34,000  Level FlightAware ADS-B
Sun 04:44:12 AM 41.9920 -90.2630 89° East 443 510 34,000  Level FlightAware ADS-B
Sun 04:44:57 AM 41.9940 -90.1420 89° East 444 511 34,000  Level FlightAware ADS-B
Sun 04:45:37 AM 41.9950 -90.0300 89° East 445 512 34,000  Level FlightAware ADS-B
Sun 04:46:17 AM 41.9970 -89.9210 89° East 446 513 34,000  Level FlightAware ADS-B
Sun 04:47:02 AM 41.9980 -89.7930 89° East 447 514 34,000  Level FlightAware ADS-B
Sun 04:47:42 AM 41.9990 -89.6880 89° East 447 514 34,000  Level FlightAware ADS-B
Sun 04:48:22 AM 42.0000 -89.5730 89° East 443 510 34,000  Level FlightAware ADS-B
Sun 04:49:07 AM 42.0010 -89.4510 89° East 443 510 34,000  Level FlightAware ADS-B
Sun 04:49:47 AM 42.0020 -89.3410 89° East 444 511 34,000  Level FlightAware ADS-B
Sun 04:50:32 AM 42.0030 -89.2150 89° East 444 511 34,000  Level FlightAware ADS-B
Sun 04:51:12 AM 42.0030 -89.1040 90° East 443 510 34,000  Level FlightAware ADS-B
Sun 04:51:52 AM 42.0040 -89.0000 89° East 443 510 34,000  Level FlightAware ADS-B
Sun 04:52:37 AM 42.0040 -88.8750 90° East 442 509 34,000  Level FlightAware ADS-B
Sun 04:53:17 AM 42.0040 -88.7650 90° East 440 506 34,000  Level FlightAware ADS-B
Sun 04:53:52 AM 42.0040 -88.6690 90° East 439 505 34,000  Level FlightAware ADS-B
Sun 04:54:37 AM 42.0040 -88.5480 90° East 437 503 34,000  Level FlightAware ADS-B
Sun 04:55:17 AM 42.0040 -88.4450 90° East 436 502 34,000  Level FlightAware ADS-B
Sun 04:56:07 AM 42.0040 -88.3040 90° East 434 499 34,000  Level FlightAware ADS-B
Sun 04:56:47 AM 42.0040 -88.1990 90° East 433 498 34,000  Level FlightAware ADS-B
Sun 04:57:32 AM 42.0030 -88.0740 91° East 432 497 34,000  Level FlightAware ADS-B
Sun 04:58:12 AM 42.0030 -87.9710 90° East 433 498 34,000  Level FlightAware ADS-B
Sun 04:58:57 AM 42.0020 -87.8490 91° East 434 499 34,000  Level FlightAware ADS-B
Sun 04:59:37 AM 42.0010 -87.7420 91° East 435 501 34,000  Level FlightAware ADS-B
Sun 05:00:17 AM 42.0000 -87.6320 91° East 435 501 34,000  Level FlightAware ADS-B
Sun 05:00:57 AM 41.9990 -87.5260 91° East 436 502 34,000  Level FlightAware ADS-B
Sun 05:01:42 AM 41.9980 -87.4010 91° East 436 502 34,000  Level FlightAware ADS-B
Sun 05:02:22 AM 41.9970 -87.2940 91° East 436 502 34,000  Level FlightAware ADS-B
Sun 05:03:07 AM 41.9960 -87.1740 91° East 436 502 34,000  Level FlightAware ADS-B
Sun 05:03:47 AM 41.9940 -87.0660 91° East 433 498 34,000  Level FlightAware ADS-B
Sun 05:04:27 AM 41.9930 -86.9600 91° East 433 498 34,000  Level FlightAware ADS-B
Sun 05:05:12 AM 41.9910 -86.8350 91° East 434 499 34,000  Level FlightAware ADS-B
Sun 05:05:52 AM 41.9890 -86.7350 92° East 433 498 34,000  Level FlightAware ADS-B
Sun 05:06:32 AM 41.9880 -86.6260 91° East 434 499 34,000  Level FlightAware ADS-B
Sun 05:07:17 AM 41.9860 -86.5090 91° East 436 502 34,000  Level FlightAware ADS-B
Sun 05:07:57 AM 41.9840 -86.3990 91° East 437 503 34,000  Level FlightAware ADS-B
Sun 05:08:42 AM 41.9810 -86.2710 92° East 439 505 34,000  Level FlightAware ADS-B
Sun 05:09:22 AM 41.9790 -86.1650 91° East 439 505 34,000  Level FlightAware ADS-B
Sun 05:10:07 AM 41.9760 -86.0460 92° East 438 504 34,000  Level FlightAware ADS-B
Sun 05:10:47 AM 41.9740 -85.9340 91° East 436 502 34,000  Level FlightAware ADS-B
Sun 05:11:22 AM 41.9720 -85.8410 92° East 435 501 34,000  Level FlightAware ADS-B
Sun 05:12:07 AM 41.9690 -85.7180 92° East 433 498 34,000  Level FlightAware ADS-B
Sun 05:12:52 AM 41.9660 -85.6000 92° East 432 497 34,000  Level FlightAware ADS-B
Sun 05:13:37 AM 41.9620 -85.4760 92° East 431 496 34,000  Level FlightAware ADS-B
Sun 05:14:17 AM 41.9590 -85.3700 92° East 431 496 34,000  Level FlightAware ADS-B
Sun 05:14:57 AM 41.9560 -85.2630 92° East 432 497 34,000  Level FlightAware ADS-B
Sun 05:15:42 AM 41.9530 -85.1380 92° East 433 498 34,000  Level FlightAware ADS-B
Sun 05:16:27 AM 41.9490 -85.0210 93° East 436 502 34,000  Level FlightAware ADS-B
Sun 05:17:02 AM 41.9460 -84.9240 92° East 438 504 34,000  Level FlightAware ADS-B
Sun 05:17:47 AM 41.9420 -84.8040 93° East 439 505 34,000  Level FlightAware ADS-B
Sun 05:18:27 AM 41.9390 -84.6940 92° East 440 506 34,000  Level FlightAware ADS-B
Sun 05:19:12 AM 41.9340 -84.5750 93° East 441 507 34,000  Level FlightAware ADS-B
Sun 05:19:52 AM 41.9300 -84.4600 93° East 442 509 34,000  Level FlightAware ADS-B
Sun 05:20:32 AM 41.9260 -84.3500 93° East 443 510 34,000  Level FlightAware ADS-B
Sun 05:21:12 AM 41.9220 -84.2450 93° East 443 510 34,000  Level FlightAware ADS-B
Sun 05:21:57 AM 41.9180 -84.1260 93° East 442 509 34,000  Level FlightAware ADS-B
Sun 05:22:37 AM 41.9130 -84.0110 93° East 441 507 34,000  Level FlightAware ADS-B
Sun 05:23:22 AM 41.9090 -83.8910 93° East 441 507 34,000  Level FlightAware ADS-B
Sun 05:24:02 AM 41.9040 -83.7780 93° East 440 506 34,000  Level FlightAware ADS-B
Sun 05:24:47 AM 41.8990 -83.6580 93° East 440 506 34,000  Level FlightAware ADS-B
Sun 05:25:27 AM 41.8940 -83.5540 94° East 441 507 34,000  Level FlightAware ADS-B
Sun 05:26:07 AM 41.8890 -83.4470 94° East 441 507 34,000  Level FlightAware ADS-B
Sun 05:26:52 AM 41.8840 -83.3170 93° East 442 509 34,000  Level FlightAware ADS-B
Sun 05:27:37 AM 41.8780 -83.2000 94° East 443 510 34,000  Level FlightAware ADS-B
Sun 05:28:17 AM 41.8730 -83.0910 93° East 444 511 34,000  Level FlightAware ADS-B
Sun 05:28:57 AM 41.8680 -82.9780 93° East 446 513 34,000  Level FlightAware ADS-B
Sun 05:29:37 AM 41.8620 -82.8640 94° East 448 516 34,000  Level FlightAware ADS-B
Sun 05:30:22 AM 41.8560 -82.7390 94° East 449 517 34,000  Level FlightAware ADS-B
Sun 05:30:57 AM 41.8510 -82.6450 94° East 449 517 34,000  Level FlightAware ADS-B
Sun 05:31:52 AM 41.8430 -82.4890 94° East 452 520 34,000  Level FlightAware ADS-B
Sun 05:32:32 AM 41.8370 -82.3770 94° East 454 522 34,000  Level FlightAware ADS-B
Sun 05:33:12 AM 41.8310 -82.2650 94° East 456 525 34,000  Level FlightAware ADS-B
Sun 05:33:52 AM 41.8240 -82.1490 95° East 457 526 34,000  Level FlightAware ADS-B
Sun 05:34:32 AM 41.8170 -82.0350 95° East 458 527 34,000  Level FlightAware ADS-B
Sun 05:35:12 AM 41.8110 -81.9270 94° East 458 527 34,000  Level FlightAware ADS-B
Sun 05:35:37 AM 41.8070 -81.8530 94° East 457 526 34,000  Level FlightAware ADS-B
Sun 05:36:22 AM 41.8000 -81.7290 94° East 458 527 34,000  Level FlightAware ADS-B
Sun 05:37:07 AM 41.7920 -81.5980 95° East 457 526 34,000  Level FlightAware ADS-B
Sun 05:37:47 AM 41.7850 -81.4860 95° East 456 525 34,000  Level FlightAware ADS-B
Sun 05:38:27 AM 41.7780 -81.3810 95° East 456 525 34,000  Level FlightAware ADS-B
Sun 05:39:12 AM 41.7700 -81.2510 95° East 455 524 34,000  Level FlightAware ADS-B
Sun 05:39:52 AM 41.7630 -81.1390 95° East 454 522 34,000  Level FlightAware ADS-B
Sun 05:40:32 AM 41.7550 -81.0230 95° East 452 520 34,000  Level FlightAware ADS-B
Sun 05:41:12 AM 41.7480 -80.9110 95° East 452 520 34,000  Level FlightAware ADS-B
Sun 05:41:57 AM 41.7400 -80.7890 95° East 453 521 34,000  Level FlightAware ADS-B
Sun 05:42:42 AM 41.7310 -80.6650 96° East 454 522 34,000  Level FlightAware ADS-B
Sun 05:43:22 AM 41.7230 -80.5500 95° East 455 524 34,000  Level FlightAware ADS-B
Sun 05:44:02 AM 41.7160 -80.4420 95° East 455 524 34,000  Level FlightAware ADS-B
Sun 05:44:47 AM 41.7060 -80.3120 96° East 457 526 34,000  Level FlightAware ADS-B
Sun 05:45:27 AM 41.6980 -80.1990 95° East 458 527 34,000  Level FlightAware ADS-B
Sun 05:46:12 AM 41.6890 -80.0740 95° East 459 528 34,000  Level FlightAware ADS-B
Sun 05:46:52 AM 41.6800 -79.9600 96° East 461 531 34,000  Level FlightAware ADS-B
Sun 05:47:37 AM 41.6710 -79.8370 96° East 462 532 34,000  Level FlightAware ADS-B
Sun 05:48:12 AM 41.6630 -79.7340 96° East 462 532 34,000  Level FlightAware ADS-B
Sun 05:48:57 AM 41.6530 -79.6050 96° East 463 533 34,000  Level FlightAware ADS-B
Sun 05:49:42 AM 41.6430 -79.4790 96° East 464 534 34,000  Level FlightAware ADS-B
Sun 05:50:17 AM 41.6360 -79.3870 96° East 464 534 34,000  Level FlightAware ADS-B
Sun 05:51:02 AM 41.6250 -79.2560 96° East 464 534 34,000  Level FlightAware ADS-B
Sun 05:51:47 AM 41.6150 -79.1300 96° East 463 533 34,000  Level FlightAware ADS-B
Sun 05:52:27 AM 41.6050 -79.0110 96° East 463 533 34,000  Level FlightAware ADS-B
Sun 05:53:07 AM 41.5950 -78.8980 97° East 463 533 34,000  Level FlightAware ADS-B
Sun 05:53:52 AM 41.5840 -78.7650 96° East 465 535 34,000  Level FlightAware ADS-B
Sun 05:54:37 AM 41.5730 -78.6410 97° East 466 536 34,000  Level FlightAware ADS-B
Sun 05:55:17 AM 41.5630 -78.5240 96° East 466 536 34,000  Level FlightAware ADS-B
Sun 05:55:57 AM 41.5530 -78.4160 97° East 466 536 34,000  Level FlightAware ADS-B
Sun 05:56:42 AM 41.5420 -78.2850 96° East 466 536 34,000  Level FlightAware ADS-B
Sun 06:01:28 AM 41.4383 -77.4682 99° East 467 537 34,000  Level FlightAware ADS-B
Sun 06:02:07 AM 41.4137 -77.3600 107° East 472 543 34,000  Level FlightAware ADS-B
Sun 06:02:38 AM 41.3947 -77.2763 107° East 471 542 34,000  Level FlightAware ADS-B
Sun 06:03:09 AM 41.3751 -77.1896 107° East 470 541 34,000  Level FlightAware ADS-B
Sun 06:03:40 AM 41.3558 -77.1048 107° East 470 541 34,000  Level FlightAware ADS-B
Sun 06:04:11 AM 41.3360 -77.0176 107° East 469 540 34,000  Level FlightAware ADS-B
Sun 06:04:41 AM 41.3170 -76.9345 107° East 468 539 34,000  Level FlightAware ADS-B
Sun 06:05:12 AM 41.2979 -76.8515 107° East 468 539 34,000  Level FlightAware ADS-B
Sun 06:05:42 AM 41.2789 -76.7692 107° East 468 539 34,000  Level FlightAware ADS-B
Sun 06:06:12 AM 41.2595 -76.6862 107° East 468 539 34,000 -200 Level FlightAware ADS-B
Sun 06:06:42 AM 41.2402 -76.6038 107° East 468 539 33,800 -700 Descending FlightAware ADS-B
Sun 06:07:12 AM 41.2211 -76.5213 107° East 464 534 33,300 -1,967 Descending FlightAware ADS-B
Sun 06:07:43 AM 41.2019 -76.4393 107° East 462 532 31,800 -3,148 Descending FlightAware ADS-B
Sun 06:08:13 AM 41.1823 -76.3567 107° East 464 534 30,100 -3,443 Descending FlightAware ADS-B
Sun 06:08:44 AM 41.1629 -76.2742 107° East 464 534 28,300 -3,049 Descending FlightAware ADS-B
Sun 06:09:14 AM 41.1437 -76.1933 107° East 455 524 27,000 -2,600 Descending FlightAware ADS-B
Sun 06:09:44 AM 41.1244 -76.1142 108° East 443 510 25,700 -2,700 Descending FlightAware ADS-B
Sun 06:10:14 AM 41.1061 -76.0376 108° East 435 501 24,300 -2,900 Descending FlightAware ADS-B
Sun 06:10:44 AM 41.0881 -75.9612 107° East 430 495 22,800 -2,754 Descending FlightAware ADS-B
Sun 06:11:15 AM 41.0702 -75.8858 107° East 421 484 21,500 -2,571 Descending FlightAware ADS-B
Sun 06:11:47 AM 41.0517 -75.8082 108° East 408 470 20,100 -2,762 Descending FlightAware ADS-B
Sun 06:12:18 AM 41.0341 -75.7349 108° East 404 465 18,600 -2,951 Descending FlightAware ADS-B
Sun 06:12:48 AM 41.0168 -75.6632 108° East 403 464 17,100 -2,656 Descending FlightAware ADS-B
Sun 06:13:19 AM 40.9999 -75.5932 108° East 394 453 15,900 -2,361 Descending FlightAware ADS-B
Sun 06:13:49 AM 40.9831 -75.5250 108° East 384 442 14,700 -2,400 Descending FlightAware ADS-B
Sun 06:14:19 AM 40.9667 -75.4583 108° East 377 434 13,500 -2,500 Descending FlightAware ADS-B
Sun 06:14:49 AM 40.9505 -75.3926 108° East 374 430 12,200 -2,182 Descending FlightAware ADS-B
Sun 06:15:25 AM 40.9318 -75.3184 108° East 347 399 11,100 -1,652 Descending FlightAware ADS-B
Sun 06:15:58 AM 40.9162 -75.2547 108° East 320 368 10,300 -1,429 Descending FlightAware ADS-B
Sun 06:16:07 AM 40.9117 -75.2382 110° East 314 361 10,100 -1,333 Descending FlightAware ADS-B
Sun 06:16:16 AM 40.9064 -75.2228 114° Southeast 308 354 9,900 -1,200 Descending FlightAware ADS-B
Sun 06:16:22 AM 40.9026 -75.2134 118° Southeast 304 350 9,800 -857 Descending FlightAware ADS-B
Sun 06:16:37 AM 40.8925 -75.1890 119° Southeast 294 338 9,600 -938 Descending FlightAware ADS-B
Sun 06:16:54 AM 40.8821 -75.1638 119° Southeast 281 323 9,300 -1,091 Descending FlightAware ADS-B
Sun 06:17:10 AM 40.8723 -75.1395 118° Southeast 275 316 9,000 -1,161 Descending FlightAware ADS-B
Sun 06:17:25 AM 40.8631 -75.1166 118° Southeast 271 312 8,700 -581 Descending FlightAware ADS-B
Sun 06:17:41 AM 40.8539 -75.0936 118° Southeast 269 310 8,700  Level FlightAware ADS-B
Sun 06:17:57 AM 40.8448 -75.0713 118° Southeast 269 310 8,700  Level FlightAware ADS-B
Sun 06:18:12 AM 40.8358 -75.0495 119° Southeast 271 312 8,700  Level FlightAware ADS-B
Sun 06:18:31 AM 40.8241 -75.0211 119° Southeast 272 313 8,700 -343 Level FlightAware ADS-B
Sun 06:18:47 AM 40.8149 -74.9988 119° Southeast 273 314 8,500 -774 Descending FlightAware ADS-B
Sun 06:19:02 AM 40.8057 -74.9764 118° Southeast 271 312 8,300 -1,000 Descending FlightAware ADS-B
Sun 06:19:17 AM 40.7968 -74.9549 119° Southeast 267 307 8,000 -1,313 Descending FlightAware ADS-B
Sun 06:19:34 AM 40.7870 -74.9313 119° Southeast 265 305 7,600 -1,500 Descending FlightAware ADS-B
Sun 06:19:49 AM 40.7779 -74.9092 119° Southeast 264 304 7,200 -1,355 Descending FlightAware ADS-B
Sun 06:20:05 AM 40.7685 -74.8862 118° Southeast 264 304 6,900 -968 Descending FlightAware ADS-B
Sun 06:20:20 AM 40.7602 -74.8662 119° Southeast 261 300 6,700 -400 Descending FlightAware ADS-B
Sun 06:20:35 AM 40.7516 -74.8450 118° Southeast 259 298 6,700 -581 Level FlightAware ADS-B
Sun 06:20:51 AM 40.7428 -74.8235 118° Southeast 257 296 6,400 -1,500 Descending FlightAware ADS-B
Sun 06:21:07 AM 40.7335 -74.8010 119° Southeast 262 302 5,900 -1,333 Descending FlightAware ADS-B
Sun 06:21:27 AM 40.7218 -74.7725 118° Southeast 255 293 5,600 -1,200 Descending FlightAware ADS-B
Sun 06:21:42 AM 40.7132 -74.7519 119° Southeast 254 292 5,200 -1,412 Descending FlightAware ADS-B
Sun 06:21:44 AM 40.7124 -74.7497 116° Southeast 258 297 5,200 -1,333 Level FlightAware ADS-B
Sun 06:22:00 AM 40.7035 -74.7281 119° Southeast 251 289 4,800 -1,071 Descending FlightAware ADS-B
Sun 06:22:12 AM 40.6968 -74.7119 119° Southeast 251 289 4,700 -353 Descending FlightAware ADS-B
Sun 06:22:17 AM 40.6943 -74.7057 118° Southeast 250 288 4,700  Level FlightAware ADS-B
Sun 06:22:33 AM 40.6854 -74.6842 119° Southeast 250 288 4,700  Level FlightAware ADS-B
Sun 06:22:39 AM 40.6818 -74.6755 119° Southeast 250 288 4,700  Level FlightAware ADS-B
Sun 06:22:48 AM 40.6768 -74.6635 119° Southeast 250 288 4,700  Level FlightAware ADS-B
Sun 06:23:06 AM 40.6672 -74.6406 119° Southeast 250 288 4,700  Level FlightAware ADS-B
Sun 06:23:07 AM 40.6662 -74.6382 119° Southeast 250 288 4,700  Level FlightAware ADS-B
Sun 06:23:21 AM 40.6590 -74.6211 119° Southeast 229 264 4,700  Level FlightAware ADS-B
Sun 06:23:37 AM 40.6515 -74.6028 118° Southeast 223 257 4,700 -429 Level FlightAware ADS-B
Sun 06:24:03 AM 40.6386 -74.5714 118° Southeast 221 254 4,400 -638 Descending FlightAware ADS-B
Sun 06:24:24 AM 40.6284 -74.5468 119° Southeast 222 255 4,200 -667 Descending FlightAware ADS-B
Sun 06:24:39 AM 40.6208 -74.5289 119° Southeast 221 254 4,000 -581 Descending FlightAware ADS-B
Sun 06:24:55 AM 40.6133 -74.5111 119° Southeast 218 251 3,900 -581 Descending FlightAware ADS-B
Sun 06:25:10 AM 40.6059 -74.4933 119° Southeast 217 250 3,700 -400 Descending FlightAware ADS-B
Sun 06:25:25 AM 40.5987 -74.4759 119° Southeast 213 245 3,700 -194 Level FlightAware ADS-B
Sun 06:25:41 AM 40.5915 -74.4583 118° Southeast 207 238 3,600 -387 Descending FlightAware ADS-B
Sun 06:25:56 AM 40.5849 -74.4424 119° Southeast 195 224 3,500 -774 Descending FlightAware ADS-B
Sun 06:26:12 AM 40.5782 -74.4261 118° Southeast 191 220 3,200 -1,161 Descending FlightAware ADS-B
Sun 06:26:27 AM 40.5719 -74.4105 118° Southeast 188 216 2,900 -1,385 Descending FlightAware ADS-B
Sun 06:26:38 AM 40.5673 -74.4000 120° Southeast 185 213 2,600 -1,364 Descending FlightAware ADS-B
Sun 06:26:49 AM 40.5627 -74.3895 120° Southeast 184 212 2,400 -1,286 Descending FlightAware ADS-B
Sun 06:27:20 AM 40.5494 -74.3578 119° Southeast 188 216 1,700 -1,105 Descending FlightAware ADS-B
Sun 06:27:27 AM 40.5467 -74.3513 119° Southeast 187 215 1,700  Level FlightAware ADS-B
Sun 06:27:40 AM 40.5410 -74.3377 119° Southeast 188 216 1,700  Level FlightAware ADS-B
Sun 06:27:59 AM 40.5334 -74.3189 118° Southeast 181 208 1,700  Level FlightAware ADS-B
Sun 06:28:03 AM 40.5327 -74.3156 106° East 179 206 1,700  Level FlightAware ADS-B
Sun 06:28:09 AM 40.5324 -74.3093 94° East 174 200 1,700  Level FlightAware ADS-B
Sun 06:28:12 AM 40.5327 -74.3060 83° East 172 198 1,700  Level FlightAware ADS-B
Sun 06:28:27 AM 40.5361 -74.2910 73° East 170 196 1,700  Level FlightAware ADS-B
Sun 06:28:30 AM 40.5373 -74.2883 60° Northeast 168 193 1,700  Level FlightAware ADS-B
Sun 06:28:47 AM 40.5441 -74.2742 58° Northeast 168 193 1,700  Level FlightAware ADS-B
Sun 06:29:02 AM 40.5505 -74.2609 58° Northeast 168 193 1,700  Level FlightAware ADS-B
Sun 06:29:05 AM 40.5520 -74.2581 55° Northeast 169 194 1,700  Level FlightAware ADS-B
Sun 06:29:10 AM 40.5543 -74.2547 48° Northeast 168 193 1,700  Level FlightAware ADS-B
Sun 06:29:16 AM 40.5581 -74.2512 35° Northeast 168 193 1,700  Level FlightAware ADS-B
Sun 06:29:20 AM 40.5610 -74.2490 30° Northeast 169 194 1,700  Level FlightAware ADS-B
Sun 06:29:40 AM 40.5749 -74.2394 28° Northeast 169 194 1,700  Level FlightAware ADS-B
Sun 06:29:46 AM 40.5789 -74.2367 27° Northeast 170 196 1,700  Level FlightAware ADS-B
Sun 06:30:01 AM 40.5901 -74.2296 26° Northeast 170 196 1,700 -529 Level FlightAware ADS-B
Sun 06:30:20 AM 40.6036 -74.2211 26° Northeast 175 201 1,400 -833 Descending FlightAware ADS-B
Sun 06:30:37 AM 40.6155 -74.2137 25° Northeast 163 188 1,200 -774 Descending FlightAware ADS-B
Sun 06:30:51 AM 40.6243 -74.2080 26° Northeast 153 176 1,000 -857 Descending FlightAware ADS-B
Sun 06:31:05 AM 40.6333 -74.2023 26° Northeast 143 165 800 -800 Descending FlightAware ADS-B
Sun 06:31:21 AM 40.6425 -74.1965 26° Northeast 140 161 600 -750 Descending FlightAware ADS-B
Sun 06:31:37 AM 40.6514 -74.1909 26° Northeast 140 161 400 -774 Descending FlightAware ADS-B
Sun 06:31:52 AM 40.6604 -74.1852 26° Northeast 139 160 200 -800 Descending FlightAware ADS-B

Login

Don't have an account? Register now (free) for customized features, flight alerts, and more!